Quick Links (Output Below):   Max & Min Temps   /   Climate Reports   /   Zone Forecasts
River Forecasts   /   Forestry Forecasts   /   Aviation Forecasts   /   Radars   /   Features

Terminal Aerodrome Forecast (El Dorado)

Pick a Site:
Arkadelphia | El Dorado | Fayetteville | Fort Smith | Harrison | Highfill | Hot Springs | Jonesboro
Little Rock | Monticello | Mountain Home | Pine Bluff | Texarkana
 Forecast 

KELD 041743Z 0418/0518 14005KT P6SM VCTS SCT005 OVC070CB
      TEMPO 0418/0422 VRB20G40KT 1SM +TSRA BR OVC004CB
     FM050200 20004KT P6SM BKN080
      TEMPO 0510/0514 2SM BR SKC
     FM051400 22006KT P6SM VCTS BKN025CB=


 Latest METARs (Observations) 
How to Decode METARs
19Z KELD 041853Z AUTO 23005KT 1SM +TSRA BR BKN043 OVC075 21/19 A3004
         RMK AO2 LTG DSNT W TSB49 SLP168 T02110194 PNO $
         
18Z KELD 041753Z AUTO 00000KT 10SM -RA FEW004 OVC075 22/21 A3004 RMK
         AO2 LTG DSNT W-N SLP169 6//// T02170206 10222 20200 58003 PNO
         $
         
15Z KELD 041453Z AUTO 00000KT 2 1/2SM VCTS RA BR BKN055 BKN070 OVC090
         20/20 A3005 RMK AO2 LTG DSNT ALQDS TSE01B09E24 SLP173 P0010
         6//// T02000200 51016 $
         
13Z KELD 041253Z AUTO 35007G20KT 1 1/4SM +TSRA BR FEW011 BKN024 OVC035
         20/19 A3003 RMK AO2 LTG DSNT ALQDS RAB09 TSB21 SLP165
         T02000194 PNO $
         
12Z KELD 041153Z AUTO 03003KT 10SM OVC020 22/19 A3000 RMK AO2 LTG DSNT
         NW-E SLP156 T02220194 10261 20217 51022
         
11Z KELD 041053Z AUTO 01008KT 10SM VCTS FEW010 OVC016 22/20 A2999 RMK
         AO2 LTG DSNT NW-E SLP152 T02220200
         
10Z KELD 040953Z AUTO 34010G15KT 10SM SCT017 BKN055 OVC070 26/23 A2997
         RMK AO2 LTG DSNT NW-NE SLP145 T02560228
         
08Z KELD 040753Z AUTO 21008KT 10SM FEW120 26/23 A2993 RMK AO2 LTG DSNT
         NW-NE SLP132 T02560228
         
06Z KELD 040553Z AUTO 19006KT 10SM CLR 26/24 A2993 RMK AO2 LTG DSNT S
         SLP131 T02560239 10272 20250 403000244 58004
         
05Z KELD 040453Z AUTO 18005KT 10SM SCT120 26/24 A2994 RMK AO2 SLP134
         T02560239
         
***** Today's Observations (Above) *****


Back to Main Page
http://www.srh.noaa.gov/lzk/qfcst.php

USA.gov is the U.S. government's official web portal to all federal, state and local government web resources and services.